Bei Facebook empfehlenBei Twitter postenGoogle plusPinterest

Das Wetter im Erzgebirge am 03.05.2016

Wetter und Klima am 03.05.2016 Holzhau im Erzgebirge (630m ü.NN)
Letzte gemessene Temperatur und Uhrzeit der Messung23:45:00 Uhr5.50 °C
Temperatur (Maximum / Höchstwert) und Uhrzeit der Messung13:30:00 Uhr18.10 °C
Temperatur (Minimum / Tiefstwert) und Uhrzeit der Messung04:00:00-0.40 °C
Errechneter Absolutwert der Temperaturschwankungen zwischen Tmin und Tmax des Tages18.50 K
Errechnete Tagesmitteltemperatur9.04271 °C
Gesamt - Niederschlag des Tages (in flüssiger Form)0.00 Liter / m²
Luftdruck (Maximum / Höchstwert) und Zeitpunkt der Messung23:45:00 Uhr1018.00 hPa
Luftdruck (Minimum / Tiefstwert) und Zeitpunkt der Messung14:00:00 Uhr1012.30 hPa
Errechneter Absolutwert der Luftdruckschwankungen des Tages5.70 hPa
Höchste gemessene Windgeschwindigkeit und Uhrzeit der Messung23:45:00 Uhr0.00 km/h
Errechnete Windhäufigkeit in Relation zu den Messwerten des Tages0.00000 %
Niedrigste Windkühle (Windchill) und Zeitpunkt der Messung04:00:00 Uhr-0.40 °C
Taupunkt (Maximum / Höchstwert) und Uhrzeit der Messung07:45:00 Uhr10.60 °C
Taupunkt (Minimum / Tiefstwert) und Uhrzeit der Messung04:00:00-2.00 °C
Anzahl der automatisch eingelesenen Messwerte 96

Detaillierte Wetter- und Klima- Messwerte für den 03.05.2016 in Holzhau im Erzgebirge (630m ü.NN)
ZeitTemperaturLuftdruckRel. LuftfeuchteWindWindrichtungWindchillTaupunktNiederschlag l/m²
23:45:005.50 °C1018.00 hPa84.00 %3.00 °C 
23:30:005.60 °C1017.80 hPa84.00 %3.10 °C 
23:15:005.80 °C1017.90 hPa84.00 %3.30 °C 
23:00:005.90 °C1017.80 hPa84.00 %3.40 °C 
22:45:005.90 °C1017.90 hPa83.00 %3.20 °C 
22:30:006.10 °C1017.70 hPa83.00 %3.40 °C 
22:15:006.20 °C1017.60 hPa83.00 %3.50 °C 
22:00:006.40 °C1017.40 hPa83.00 %3.70 °C 
21:45:006.50 °C1017.30 hPa83.00 %3.80 °C 
21:30:006.60 °C1017.10 hPa83.00 %3.90 °C 
21:15:006.80 °C1016.90 hPa82.00 %3.90 °C 
21:00:006.90 °C1016.80 hPa82.00 %4.00 °C 
20:45:007.00 °C1016.70 hPa82.00 %4.10 °C 
20:30:007.20 °C1016.30 hPa82.00 %4.30 °C 
20:15:007.30 °C1016.20 hPa82.00 %4.40 °C 
20:00:007.60 °C1015.90 hPa81.00 %4.60 °C 
19:45:007.80 °C1015.60 hPa80.00 %4.60 °C 
19:30:008.20 °C1015.10 hPa80.00 %5.00 °C 
19:15:008.80 °C1015.00 hPa79.00 %5.40 °C 
19:00:009.20 °C1014.90 hPa78.00 %5.60 °C 
18:45:009.80 °C1014.40 hPa76.00 %5.80 °C 
18:30:0010.50 °C1014.00 hPa74.00 %6.10 °C 
18:15:0011.40 °C1013.90 hPa70.00 %6.10 °C 
18:00:0012.60 °C1013.60 hPa65.00 %6.20 °C 
17:45:0013.90 °C1013.30 hPa57.00 %5.50 °C 
17:30:0014.90 °C1012.80 hPa52.00 %5.10 °C 
17:15:0015.60 °C1012.60 hPa50.00 %5.20 °C 
17:00:0016.40 °C1012.60 hPa50.00 %6.00 °C 
16:45:0016.50 °C1012.50 hPa50.00 %6.10 °C 
16:30:0015.90 °C1012.60 hPa51.00 %5.80 °C 
16:15:0015.50 °C1012.60 hPa51.00 %5.40 °C 
16:00:0015.60 °C1012.50 hPa51.00 %5.50 °C 
15:45:0015.80 °C1012.60 hPa51.00 %5.70 °C 
15:30:0016.10 °C1012.50 hPa50.00 %5.70 °C 
15:15:0015.90 °C1012.70 hPa52.00 %6.10 °C 
15:00:0016.10 °C1012.60 hPa52.00 %6.30 °C 
14:45:0016.10 °C1012.50 hPa53.00 %6.50 °C 
14:30:0015.50 °C1012.60 hPa53.00 %6.00 °C 
14:15:0016.40 °C1012.50 hPa52.00 %6.50 °C 
14:00:0017.30 °C1012.30 hPa51.00 %7.10 °C 
13:45:0017.30 °C1012.50 hPa53.00 %7.60 °C 
13:30:0018.10 °C1012.30 hPa52.00 %8.10 °C 
13:15:0017.60 °C1012.30 hPa54.00 %8.20 °C 
13:00:0017.00 °C1012.40 hPa54.00 %7.60 °C 
12:45:0017.10 °C1012.40 hPa54.00 %7.70 °C 
12:30:0016.90 °C1012.50 hPa54.00 %7.50 °C 
12:15:0016.10 °C1012.50 hPa58.00 %7.80 °C 
12:00:0015.70 °C1012.70 hPa57.00 %7.20 °C 
11:45:0016.10 °C1012.70 hPa58.00 %7.80 °C 
11:30:0014.90 °C1012.60 hPa59.00 %7.00 °C 
11:15:0014.90 °C1012.90 hPa58.00 %6.70 °C 
11:00:0015.50 °C1012.70 hPa58.00 %7.30 °C 
10:45:0015.30 °C1012.70 hPa61.00 %7.80 °C 
10:30:0014.60 °C1012.90 hPa59.00 %6.70 °C 
10:15:0015.90 °C1013.00 hPa61.00 %8.40 °C 
10:00:0015.50 °C1012.90 hPa64.00 %8.70 °C 
09:45:0014.60 °C1013.00 hPa66.00 %8.30 °C 
09:30:0013.90 °C1013.00 hPa68.00 %8.10 °C 
09:15:0013.10 °C1012.90 hPa71.00 %8.00 °C 
09:00:0012.90 °C1013.10 hPa73.00 %8.20 °C 
08:45:0012.60 °C1013.20 hPa76.00 %8.50 °C 
08:30:0012.20 °C1013.10 hPa77.00 %8.30 °C 
08:15:0012.20 °C1013.30 hPa79.00 %8.70 °C 
08:00:0012.50 °C1013.30 hPa81.00 %9.30 °C 
07:45:0012.90 °C1013.20 hPa86.00 %10.60 °C 
07:30:0011.50 °C1013.20 hPa90.00 %9.90 °C 
07:15:009.20 °C1013.30 hPa91.00 %7.80 °C 
07:00:008.20 °C1013.30 hPa92.00 %7.00 °C 
06:45:006.10 °C1013.20 hPa92.00 %4.90 °C 
06:30:004.60 °C1013.30 hPa92.00 %3.40 °C 
06:15:003.20 °C1013.40 hPa92.00 %2.00 °C 
06:00:002.10 °C1013.50 hPa92.00 %0.90 °C 
05:45:001.30 °C1013.50 hPa91.00 %0.00 °C 
05:30:001.00 °C1013.50 hPa91.00 %-0.30 °C 
05:15:000.90 °C1013.80 hPa91.00 %-0.40 °C 
05:00:000.50 °C1013.60 hPa91.00 %-0.80 °C 
04:45:00-0.10 °C1013.70 hPa90.00 %-1.70 °C 
04:30:00-0.10 °C1013.80 hPa90.00 %-1.70 °C 
04:15:00-0.10 °C1013.90 hPa90.00 %-1.70 °C 
04:00:00-0.40 °C1013.90 hPa90.00 %-2.00 °C 
03:45:00-0.20 °C1014.10 hPa90.00 %-1.80 °C 
03:30:00-0.10 °C1014.10 hPa89.00 %-1.90 °C 
03:15:000.10 °C1014.20 hPa89.00 %-1.50 °C 
03:00:000.30 °C1014.20 hPa89.00 %-1.30 °C 
02:45:000.10 °C1014.30 hPa89.00 %-1.50 °C 
02:30:000.20 °C1014.30 hPa89.00 %-1.40 °C 
02:15:000.40 °C1014.50 hPa89.00 %-1.20 °C 
02:00:000.40 °C1014.50 hPa88.00 %-1.30 °C 
01:45:000.70 °C1014.70 hPa88.00 %-1.10 °C 
01:30:000.90 °C1014.80 hPa88.00 %-0.90 °C 
01:15:001.20 °C1014.90 hPa88.00 %-0.60 °C 
01:00:001.20 °C1014.90 hPa87.00 %-0.70 °C 
00:45:001.20 °C1015.20 hPa87.00 %-0.70 °C 
00:30:001.30 °C1015.20 hPa87.00 %-0.60 °C 
00:15:000.90 °C1015.20 hPa86.00 %-1.20 °C 
00:00:001.10 °C1015.60 hPa86.00 %-1.00 °C 

Permanenter Link zu dieser Seite: Wetter im Erzgebirge am 03.05.2016
Performance-Info: Die Erstellung der Seite / Statistik(en) / Tabelle(n) erforderte 5 Datenbankserver-Abfrage(n) und dauerte 100 Millisekunden. (Dieser Messwert ist von der Gesamt-Auslastung des Servers abhängig.)
Erzgebirge - Wetter | Erzgebirge - Wetter (Mobilgeräte) | Komplette Klimadatenbank